createdAt,value
2018-04-30T00:04:51.092Z,2.02
2018-04-30T00:10:41.802Z,1.7
2018-04-30T00:16:32.477Z,2.25
2018-04-30T00:22:23.194Z,2.44
2018-04-30T00:28:13.861Z,1.98
2018-04-30T00:34:04.599Z,1.97
2018-04-30T00:39:55.198Z,1.7
2018-04-30T00:45:45.904Z,2.21
2018-04-30T00:51:36.635Z,2.11
2018-04-30T00:57:27.294Z,2.1
2018-04-30T01:03:17.964Z,2.13
2018-04-30T01:09:08.668Z,1.92
2018-04-30T01:14:59.315Z,1.89
2018-04-30T01:20:50.027Z,1.79
2018-04-30T01:26:40.730Z,1.91
2018-04-30T01:32:31.426Z,2.48
2018-04-30T01:38:22.084Z,2.77
2018-04-30T01:50:03.454Z,2.58
2018-04-30T01:55:54.126Z,2.21
2018-04-30T02:01:44.835Z,2.3
2018-04-30T02:07:35.539Z,2.58
2018-04-30T02:13:26.213Z,2.54
2018-04-30T02:19:16.895Z,3.03
2018-04-30T02:25:07.567Z,2.56
2018-04-30T02:30:58.243Z,2.57
2018-04-30T02:36:48.909Z,2.17
2018-04-30T02:42:39.644Z,2.89
2018-04-30T02:48:30.305Z,4.45
2018-04-30T02:54:20.977Z,3.06
2018-04-30T03:00:11.665Z,2.46
2018-04-30T03:06:02.332Z,2.39
2018-04-30T03:11:52.982Z,3.49
2018-04-30T03:17:43.692Z,2.52
2018-04-30T03:23:34.359Z,3.22
2018-04-30T03:29:25.017Z,2.07
2018-04-30T03:35:15.765Z,2.96
2018-04-30T03:41:06.377Z,3.77
2018-04-30T03:46:57.078Z,3.24
2018-04-30T03:52:47.841Z,2.63
2018-04-30T03:58:38.445Z,2.46
2018-04-30T04:04:29.126Z,2.46
2018-04-30T04:10:19.822Z,2.53
2018-04-30T04:16:10.477Z,2
2018-04-30T04:22:01.138Z,3.69
2018-04-30T04:27:51.859Z,2.59
2018-04-30T04:33:42.494Z,1.54
2018-04-30T04:39:33.172Z,2.04
2018-04-30T04:45:23.889Z,1.79
2018-04-30T04:51:14.539Z,1.26
2018-04-30T04:57:05.208Z,1.25
2018-04-30T05:02:55.894Z,1.63
2018-04-30T05:08:46.573Z,1.49
2018-04-30T05:14:37.248Z,1.3
2018-04-30T05:20:27.913Z,1.69
2018-04-30T05:26:18.584Z,2.21
2018-04-30T05:32:09.261Z,1.71
2018-04-30T05:37:59.925Z,2.05
2018-04-30T05:43:50.606Z,1.52
2018-04-30T05:49:41.270Z,1.75
2018-04-30T05:55:32.018Z,2.05
2018-04-30T06:01:22.720Z,2.06
2018-04-30T06:07:13.320Z,2.6
2018-04-30T06:13:04.046Z,1.74
2018-04-30T06:18:54.765Z,1.91
2018-04-30T06:24:45.431Z,2.3
2018-04-30T06:30:36.072Z,1.72
2018-04-30T06:36:26.774Z,2.05
2018-04-30T06:42:17.463Z,1.79
2018-04-30T06:48:08.154Z,1.95
2018-04-30T06:53:58.851Z,2.23
2018-04-30T06:59:49.501Z,1.79
2018-04-30T07:05:40.204Z,5.65
2018-04-30T07:11:30.885Z,1.67
2018-04-30T07:17:21.568Z,1.2
2018-04-30T07:23:12.263Z,1.49
2018-04-30T07:29:02.973Z,2.04
2018-04-30T07:34:53.646Z,1.46
2018-04-30T07:40:44.356Z,1.71
2018-04-30T07:46:35.061Z,1.22
2018-04-30T07:52:25.711Z,2.01
2018-04-30T07:58:16.473Z,1.77
2018-04-30T08:04:07.135Z,1.26
2018-04-30T08:09:57.853Z,1.26
2018-04-30T08:15:48.522Z,1.4
2018-04-30T08:21:39.267Z,2.57
2018-04-30T08:27:29.889Z,1.47
2018-04-30T08:33:20.602Z,1.38
2018-04-30T08:39:11.453Z,1.56
2018-04-30T08:45:02.060Z,1.74
2018-04-30T08:50:52.664Z,1.41
2018-04-30T08:56:43.421Z,1.3
2018-04-30T09:02:34.106Z,1.41
2018-04-30T09:08:24.859Z,1
2018-04-30T09:14:15.505Z,1.66
2018-04-30T09:20:06.251Z,1.92
2018-04-30T09:25:56.873Z,1.48
2018-04-30T09:31:47.563Z,1.3
2018-04-30T09:37:38.323Z,1.27
2018-04-30T09:43:29.016Z,1.64
2018-04-30T09:49:19.722Z,1.5
2018-04-30T09:55:10.472Z,1.49
2018-04-30T10:01:01.089Z,1.35
2018-04-30T10:06:51.901Z,1.49
2018-04-30T10:12:42.529Z,1.26
2018-04-30T10:18:33.230Z,1.44
2018-04-30T10:24:23.987Z,1.24
2018-04-30T10:30:14.645Z,1.34
2018-04-30T10:36:05.388Z,1.68
2018-04-30T10:41:56.061Z,2.41
2018-04-30T10:47:46.871Z,2.21
2018-04-30T10:53:37.473Z,1.59
2018-04-30T10:59:28.206Z,1.22
2018-04-30T11:05:18.909Z,1.99
2018-04-30T11:11:09.607Z,2.29
2018-04-30T11:17:00.378Z,1.88
2018-04-30T11:22:51.004Z,1.67
2018-04-30T11:28:41.715Z,1.73
2018-04-30T11:34:32.432Z,1.94
2018-04-30T11:40:23.146Z,1.73
2018-04-30T11:46:13.857Z,1.27
2018-04-30T11:52:04.573Z,1.7
2018-04-30T11:57:55.323Z,1.89
2018-04-30T12:03:46.015Z,1.39
2018-04-30T12:09:36.818Z,1.8
2018-04-30T12:15:27.546Z,1.72
2018-04-30T12:21:18.302Z,1.5
2018-04-30T12:27:09.090Z,1.42
2018-04-30T12:32:59.851Z,1.59
2018-04-30T12:38:50.632Z,2.11
2018-04-30T12:44:41.425Z,1.38
2018-04-30T12:50:32.189Z,1.34
2018-04-30T12:56:22.995Z,1.68
2018-04-30T13:02:13.829Z,1.7
2018-04-30T13:08:04.576Z,1.37
2018-04-30T13:13:55.396Z,1.27
2018-04-30T13:19:46.188Z,1.25
2018-04-30T13:25:36.976Z,1.95
2018-04-30T13:31:27.796Z,1.37
2018-04-30T13:37:18.636Z,2.22
2018-04-30T13:43:09.406Z,1.92
2018-04-30T13:49:00.199Z,1.47
2018-04-30T13:54:50.939Z,1.6
2018-04-30T14:00:41.706Z,1.98
2018-04-30T14:06:32.513Z,1.38
2018-04-30T14:12:23.272Z,1.72
2018-04-30T14:18:14.074Z,1.42
2018-04-30T14:24:04.850Z,1.44
2018-04-30T14:29:55.570Z,1.44
2018-04-30T14:35:46.371Z,1.88
2018-04-30T14:41:37.084Z,1.27
2018-04-30T14:47:27.837Z,1.66
2018-04-30T14:53:18.577Z,1.78
2018-04-30T14:59:09.302Z,1.49
2018-04-30T15:05:00.079Z,1.81
2018-04-30T15:10:50.752Z,1.98
2018-04-30T15:16:41.583Z,1.44
2018-04-30T15:22:32.264Z,1.58
2018-04-30T15:28:22.965Z,1.81
2018-04-30T15:34:13.679Z,1.6
2018-04-30T15:40:04.448Z,1.84
2018-04-30T15:45:55.187Z,1.48
2018-04-30T15:51:45.877Z,1.46
2018-04-30T15:57:36.629Z,1.71
2018-04-30T16:03:27.371Z,1.32
2018-04-30T16:09:18.074Z,1.46
2018-04-30T16:15:08.779Z,1.36
2018-04-30T16:20:59.523Z,1.96
2018-04-30T16:26:50.223Z,1.61
2018-04-30T16:32:40.948Z,1.46
2018-04-30T16:38:31.652Z,1.89
2018-04-30T16:44:22.385Z,1.1
2018-04-30T16:50:13.144Z,1.58
2018-04-30T16:56:03.852Z,1.64
2018-04-30T17:01:54.571Z,1.53
2018-04-30T17:07:45.275Z,1.47
2018-04-30T17:13:36.011Z,1.62
2018-04-30T17:19:26.733Z,1.62
2018-04-30T17:25:17.404Z,2.1
2018-04-30T17:31:08.152Z,2.1
2018-04-30T17:36:58.800Z,1.74
2018-04-30T17:42:49.554Z,2.21
2018-04-30T17:48:40.279Z,1.66
2018-04-30T17:54:30.939Z,2.14
2018-04-30T18:00:21.669Z,2.96
2018-04-30T18:06:12.353Z,2.49
2018-04-30T18:12:03.049Z,3.08
2018-04-30T18:17:53.688Z,3.1
2018-04-30T18:23:44.447Z,2.44
2018-04-30T18:29:35.070Z,2.89
2018-04-30T18:35:25.799Z,4.24
2018-04-30T18:41:16.453Z,7.94
2018-04-30T18:47:07.156Z,6.24
2018-04-30T18:52:57.869Z,4.66
2018-04-30T18:58:48.630Z,4.61
2018-04-30T19:04:39.213Z,4.8
2018-04-30T19:10:29.927Z,6.01
2018-04-30T19:16:20.544Z,9.52
2018-04-30T19:22:11.241Z,6.59
2018-04-30T19:28:01.933Z,7.41
2018-04-30T19:33:52.653Z,5.95
2018-04-30T19:39:43.243Z,4.78
2018-04-30T19:45:33.999Z,4.21
2018-04-30T19:51:24.595Z,3.8
2018-04-30T19:57:15.340Z,3.71
2018-04-30T20:03:05.991Z,3.64
2018-04-30T20:08:56.676Z,3.29
2018-04-30T20:14:47.324Z,3.55
2018-04-30T20:20:37.971Z,3.98
2018-04-30T20:26:28.642Z,3.4
2018-04-30T20:32:19.346Z,3.48
2018-04-30T20:38:10.010Z,3.52
2018-04-30T20:44:00.678Z,3.85
2018-04-30T20:49:51.358Z,3.91
2018-04-30T20:55:42.000Z,3.68
2018-04-30T21:01:32.667Z,3.66
2018-04-30T21:07:23.389Z,2.62
2018-04-30T21:13:14.028Z,2.86
2018-04-30T21:19:04.687Z,3.69
2018-04-30T21:24:55.362Z,3.14
2018-04-30T21:30:46.019Z,3.53
2018-04-30T21:36:36.661Z,2.83
2018-04-30T21:42:27.331Z,3.08
2018-04-30T21:48:18.004Z,2.8
2018-04-30T21:54:08.660Z,3.5
2018-04-30T21:59:59.347Z,2.28
2018-04-30T22:05:50.046Z,3.08
2018-04-30T22:11:40.665Z,4.12
2018-04-30T22:17:31.293Z,3.31
2018-04-30T22:23:21.977Z,3.66
2018-04-30T22:29:12.663Z,3.68
2018-04-30T22:35:03.293Z,3.98
2018-04-30T22:40:53.992Z,5
2018-04-30T22:46:44.650Z,4.26
2018-04-30T22:52:35.308Z,4.21
2018-04-30T22:58:25.981Z,4.54
2018-04-30T23:04:16.632Z,4.11
2018-04-30T23:10:07.348Z,3.52
2018-04-30T23:15:57.965Z,3.62
2018-04-30T23:21:48.640Z,3.71
2018-04-30T23:27:39.306Z,3.42
2018-04-30T23:33:29.974Z,4.22
2018-04-30T23:39:20.638Z,3.53
2018-04-30T23:45:11.323Z,3.54
2018-04-30T23:51:01.946Z,4.18
2018-04-30T23:56:52.618Z,3.41
